Time;durP1;ratioP1;P1;durP2;ratioP2;P2;SDS_P1;SDS_P2;PMS_P1;PMS_P2;Temp;Humidity;BMP_temperature;BMP_pressure;BME280_temperature;BME280_humidity;BME280_pressure;Samples;Min_cycle;Max_cycle;Signal;HPM_P1;HPM_P2
2022/05/20 00:01:54;;;;;;;17.33;2.75;;;;;;;;;;5052532;28;20028;-64
2022/05/20 00:04:20;;;;;;;8.80;2.47;;;;;;;;;;5052250;28;20035;-64
2022/05/20 00:06:46;;;;;;;17.48;3.15;;;;;;;;;;5052238;28;20043;-64
2022/05/20 00:09:12;;;;;;;15.60;2.88;;;;;;;;;;5052203;28;20386;-64
2022/05/20 00:11:38;;;;;;;21.15;3.60;;;;;;;;;;5052461;28;20063;-64
2022/05/20 00:14:05;;;;;;;15.82;2.30;;;;;;;;;;5051847;28;20025;-64
2022/05/20 00:16:33;;;;;;;19.58;3.30;;;;;;;;;;5052204;28;20519;-64
2022/05/20 00:18:59;;;;;;;17.10;3.35;;;;;;;;;;5052326;28;20504;-64
2022/05/20 00:21:26;;;;;;;10.57;2.65;;;;;;;;;;5067677;28;20025;-64
2022/05/20 00:23:52;;;;;;;14.68;3.60;;;;;;;;;;5061769;28;20120;-64
2022/05/20 00:26:18;;;;;;;22.92;3.35;;;;;;;;;;5051898;28;20032;-64
2022/05/20 00:28:46;;;;;;;13.75;2.75;;;;;;;;;;5063555;28;20024;-64
2022/05/20 00:31:12;;;;;;;14.88;2.80;;;;;;;;;;5060041;28;20044;-64
2022/05/20 00:33:38;;;;;;;15.95;3.40;;;;;;;;;;5052112;28;20060;-64
2022/05/20 00:36:05;;;;;;;16.15;2.80;;;;;;;;;;5052011;28;20025;-64
2022/05/20 00:38:31;;;;;;;11.40;2.97;;;;;;;;;;5051977;28;20037;-64
2022/05/20 00:40:58;;;;;;;11.98;2.55;;;;;;;;;;5051623;28;20029;-64
2022/05/20 00:43:29;;;;;;;15.98;3.35;;;;;;;;;;5051792;28;20021;-64
2022/05/20 00:46:06;;;;;;;17.20;2.40;;;;;;;;;;5050687;28;20408;-64
2022/05/20 00:48:33;;;;;;;16.73;2.70;;;;;;;;;;5051652;28;20398;-64
2022/05/20 00:50:59;;;;;;;17.00;3.13;;;;;;;;;;5051984;28;20032;-64
2022/05/20 00:53:28;;;;;;;16.17;3.08;;;;;;;;;;5051630;28;20477;-64
2022/05/20 00:55:55;;;;;;;16.52;3.42;;;;;;;;;;5051415;28;20025;-64
2022/05/20 00:58:22;;;;;;;20.85;3.08;;;;;;;;;;5051632;28;20036;-64
2022/05/20 01:00:53;;;;;;;14.90;3.10;;;;;;;;;;5051752;28;20021;-64
2022/05/20 01:03:24;;;;;;;13.98;2.97;;;;;;;;;;5051644;28;20029;-64
2022/05/20 01:05:51;;;;;;;15.90;3.00;;;;;;;;;;5052097;28;20032;-64
2022/05/20 01:08:19;;;;;;;19.30;3.17;;;;;;;;;;5051511;28;20032;-64
2022/05/20 01:10:46;;;;;;;11.52;2.72;;;;;;;;;;5051576;28;20040;-64
2022/05/20 01:13:13;;;;;;;23.92;3.25;;;;;;;;;;5054992;28;20032;-64
2022/05/20 01:15:39;;;;;;;10.20;2.55;;;;;;;;;;5055487;28;20033;-64
2022/05/20 01:18:06;;;;;;;11.55;2.30;;;;;;;;;;5055730;28;20035;-64
2022/05/20 01:20:37;;;;;;;14.13;2.88;;;;;;;;;;5055191;28;20037;-64
2022/05/20 01:23:06;;;;;;;16.48;3.50;;;;;;;;;;5055539;28;20462;-64
2022/05/20 01:25:33;;;;;;;8.57;2.08;;;;;;;;;;5055054;28;20044;-64
2022/05/20 01:27:59;;;;;;;16.50;3.60;;;;;;;;;;5060613;28;20025;-64
2022/05/20 01:30:27;;;;;;;12.82;2.70;;;;;;;;;;5075113;28;20035;-64
2022/05/20 01:32:54;;;;;;;15.82;3.92;;;;;;;;;;5067588;28;20053;-64
2022/05/20 01:35:28;;;;;;;13.60;2.55;;;;;;;;;;5055090;28;20037;-64
2022/05/20 01:37:54;;;;;;;15.70;3.60;;;;;;;;;;5055413;28;20037;-64
2022/05/20 01:40:20;;;;;;;13.77;3.10;;;;;;;;;;5054331;28;20013;-64
2022/05/20 01:42:51;;;;;;;11.90;2.58;;;;;;;;;;5055051;28;20035;-64
2022/05/20 01:45:29;;;;;;;14.55;2.75;;;;;;;;;;5054936;28;20114;-64
2022/05/20 01:48:09;;;;;;;11.38;2.03;;;;;;;;;;5055346;28;20025;-64
2022/05/20 01:50:44;;;;;;;14.57;2.80;;;;;;;;;;5054880;28;20090;-64
2022/05/20 01:53:35;;;;;;;15.93;2.72;;;;;;;;;;5054905;28;20043;-64
2022/05/20 01:56:11;;;;;;;12.38;2.75;;;;;;;;;;5060429;28;20028;-64
2022/05/20 01:58:40;;;;;;;17.17;3.60;;;;;;;;;;5074696;28;20044;-64
2022/05/20 02:01:09;;;;;;;14.70;2.88;;;;;;;;;;5072954;28;20078;-64
2022/05/20 02:03:50;;;;;;;17.15;2.70;;;;;;;;;;5074617;28;20476;-64
2022/05/20 02:06:24;;;;;;;19.35;4.05;;;;;;;;;;5074476;28;20047;-64
2022/05/20 02:08:57;;;;;;;20.63;2.88;;;;;;;;;;5074504;28;20095;-64
2022/05/20 02:11:29;;;;;;;18.80;3.88;;;;;;;;;;5074464;28;20060;-64
2022/05/20 02:14:11;;;;;;;19.85;4.18;;;;;;;;;;5074601;28;20450;-64
2022/05/20 02:16:39;;;;;;;20.17;4.10;;;;;;;;;;5069798;28;20115;-64
2022/05/20 02:19:08;;;;;;;16.15;2.65;;;;;;;;;;5054528;28;20036;-64
2022/05/20 02:21:37;;;;;;;18.73;3.67;;;;;;;;;;5054038;28;20464;-64
2022/05/20 02:24:06;;;;;;;21.67;3.95;;;;;;;;;;5052763;28;20033;-64
2022/05/20 02:26:37;;;;;;;19.10;2.75;;;;;;;;;;5054200;28;20462;-64
2022/05/20 02:29:08;;;;;;;12.52;2.40;;;;;;;;;;5068632;28;20039;-64
2022/05/20 02:31:38;;;;;;;18.13;2.58;;;;;;;;;;5073989;28;20082;-64
2022/05/20 02:34:04;;;;;;;15.63;2.55;;;;;;;;;;5074340;28;20032;-64
2022/05/20 02:36:33;;;;;;;12.90;3.03;;;;;;;;;;5073993;28;20044;-64
2022/05/20 02:38:59;;;;;;;13.00;3.92;;;;;;;;;;5073242;28;20099;-64
2022/05/20 02:41:25;;;;;;;11.13;2.88;;;;;;;;;;5073790;28;20032;-64
2022/05/20 02:43:51;;;;;;;12.65;2.90;;;;;;;;;;5058292;28;20083;-64
2022/05/20 02:46:17;;;;;;;15.48;3.33;;;;;;;;;;5053563;28;20113;-64
2022/05/20 02:48:43;;;;;;;15.88;2.40;;;;;;;;;;5053971;28;20063;-64
2022/05/20 02:51:10;;;;;;;12.85;2.72;;;;;;;;;;5053853;28;20024;-64
2022/05/20 02:53:36;;;;;;;18.40;3.20;;;;;;;;;;5065569;28;20035;-64
2022/05/20 02:56:03;;;;;;;12.13;2.40;;;;;;;;;;5061286;28;20028;-64
2022/05/20 03:04:12;;;;;;;15.35;2.10;;;;;;;;;;5053778;28;20037;-64
2022/05/20 03:06:39;;;;;;;10.07;2.20;;;;;;;;;;5053086;28;20071;-64
2022/05/20 03:09:06;;;;;;;12.80;2.72;;;;;;;;;;5053509;28;20033;-64
2022/05/20 03:11:36;;;;;;;18.38;2.42;;;;;;;;;;5053295;28;20029;-64
2022/05/20 03:14:03;;;;;;;12.73;2.60;;;;;;;;;;5053532;28;20079;-64
2022/05/20 03:16:30;;;;;;;13.95;2.63;;;;;;;;;;5057711;28;20491;-64
2022/05/20 03:18:56;;;;;;;14.02;2.60;;;;;;;;;;5073238;28;20043;-64
2022/05/20 03:21:22;;;;;;;9.98;2.65;;;;;;;;;;5072769;28;20485;-64
2022/05/20 03:23:48;;;;;;;10.02;2.83;;;;;;;;;;5057528;28;20409;-64
2022/05/20 03:26:15;;;;;;;13.70;2.45;;;;;;;;;;5055942;28;20402;-64
2022/05/20 03:28:43;;;;;;;11.98;2.67;;;;;;;;;;5059257;28;20029;-64
2022/05/20 03:31:11;;;;;;;12.68;2.20;;;;;;;;;;5056779;28;20028;-64
2022/05/20 03:33:38;;;;;;;10.60;2.83;;;;;;;;;;5050734;28;20532;-64
2022/05/20 03:36:06;;;;;;;13.55;2.47;;;;;;;;;;5050511;28;20060;-64
2022/05/20 03:38:32;;;;;;;11.48;2.40;;;;;;;;;;5051783;28;20037;-64
2022/05/20 03:40:59;;;;;;;11.18;2.70;;;;;;;;;;5051967;28;20469;-64
2022/05/20 03:43:26;;;;;;;12.50;2.72;;;;;;;;;;5054507;28;20063;-64
2022/05/20 03:45:53;;;;;;;18.15;2.67;;;;;;;;;;5050886;28;20083;-64
2022/05/20 03:48:19;;;;;;;13.43;3.50;;;;;;;;;;5052393;28;20053;-64
2022/05/20 03:50:45;;;;;;;23.08;4.05;;;;;;;;;;5052018;28;20035;-64
2022/05/20 03:53:11;;;;;;;17.00;2.85;;;;;;;;;;5046340;28;20063;-64
2022/05/20 03:55:38;;;;;;;15.02;3.55;;;;;;;;;;5051824;28;20040;-64
2022/05/20 03:58:04;;;;;;;13.30;2.60;;;;;;;;;;5052047;28;20047;-64
2022/05/20 04:00:30;;;;;;;18.23;2.97;;;;;;;;;;5052127;28;20060;-64
2022/05/20 04:02:56;;;;;;;18.60;3.42;;;;;;;;;;5060268;28;20448;-64
2022/05/20 04:05:22;;;;;;;20.45;3.60;;;;;;;;;;5054956;28;20021;-64
2022/05/20 04:07:48;;;;;;;13.82;3.38;;;;;;;;;;5049570;28;20025;-64
2022/05/20 04:10:14;;;;;;;17.55;3.30;;;;;;;;;;5051679;28;20100;-64
2022/05/20 04:12:42;;;;;;;19.50;3.10;;;;;;;;;;5054958;28;20456;-63
2022/05/20 04:15:14;;;;;;;15.48;3.22;;;;;;;;;;5052104;28;20086;-64
2022/05/20 04:17:40;;;;;;;11.90;2.42;;;;;;;;;;5061074;28;20032;-63
2022/05/20 04:20:07;;;;;;;19.67;4.47;;;;;;;;;;5052265;28;20021;-63
2022/05/20 04:22:34;;;;;;;14.85;2.97;;;;;;;;;;5051434;28;20366;-63
2022/05/20 04:25:01;;;;;;;14.35;3.50;;;;;;;;;;5051922;28;20431;-63
2022/05/20 04:27:27;;;;;;;15.50;3.20;;;;;;;;;;5053792;28;20505;-63
2022/05/20 04:29:54;;;;;;;14.70;4.13;;;;;;;;;;5052624;28;20033;-64
2022/05/20 04:32:20;;;;;;;18.52;3.13;;;;;;;;;;5048032;28;20021;-63
2022/05/20 04:34:46;;;;;;;16.33;2.83;;;;;;;;;;5041713;28;20397;-63
2022/05/20 04:37:13;;;;;;;13.27;2.95;;;;;;;;;;5046077;28;20029;-63
2022/05/20 04:39:40;;;;;;;9.85;3.30;;;;;;;;;;5041503;28;20041;-63
2022/05/20 04:47:36;;;;;;;14.07;2.70;;;;;;;;;;5053776;28;20047;-63
2022/05/20 04:50:04;;;;;;;13.43;2.70;;;;;;;;;;5054289;28;20025;-64
2022/05/20 04:52:30;;;;;;;15.48;3.17;;;;;;;;;;5055694;28;20025;-64
2022/05/20 04:54:56;;;;;;;16.27;2.60;;;;;;;;;;5055326;28;20401;-66
2022/05/20 04:57:31;;;;;;;19.77;3.20;;;;;;;;;;5036752;28;20050;-63
2022/05/20 04:59:59;;;;;;;13.35;2.47;;;;;;;;;;5035277;28;20045;-63
2022/05/20 05:02:26;;;;;;;17.13;3.08;;;;;;;;;;5035217;28;20079;-63
2022/05/20 05:04:52;;;;;;;14.00;3.35;;;;;;;;;;5052687;28;20033;-63
2022/05/20 05:07:19;;;;;;;13.15;3.40;;;;;;;;;;5059990;28;20516;-63
2022/05/20 05:09:46;;;;;;;14.60;2.33;;;;;;;;;;5043092;28;20028;-63
2022/05/20 05:12:13;;;;;;;18.70;4.13;;;;;;;;;;5043288;28;20025;-63
2022/05/20 05:14:47;;;;;;;13.32;3.38;;;;;;;;;;5045539;28;20435;-62
2022/05/20 05:17:14;;;;;;;13.82;2.88;;;;;;;;;;5049880;28;20553;-63
2022/05/20 05:19:41;;;;;;;16.05;3.75;;;;;;;;;;5051398;28;20031;-63
2022/05/20 05:22:08;;;;;;;10.18;2.88;;;;;;;;;;5053644;28;20078;-63
2022/05/20 05:24:35;;;;;;;20.88;3.15;;;;;;;;;;5045178;28;20045;-63
2022/05/20 05:27:01;;;;;;;20.15;3.53;;;;;;;;;;5051861;28;20032;-63
2022/05/20 05:29:27;;;;;;;26.75;4.20;;;;;;;;;;5051359;28;20061;-63
2022/05/20 05:31:53;;;;;;;12.18;2.75;;;;;;;;;;5048311;28;20385;-63
2022/05/20 05:34:19;;;;;;;22.30;2.90;;;;;;;;;;5054584;28;20036;-63
2022/05/20 05:36:46;;;;;;;16.20;2.67;;;;;;;;;;5054093;28;20035;-63
2022/05/20 05:39:12;;;;;;;13.48;2.40;;;;;;;;;;5053727;28;20025;-63
2022/05/20 05:41:38;;;;;;;14.23;2.88;;;;;;;;;;5058241;28;20090;-63
2022/05/20 05:44:04;;;;;;;20.27;3.03;;;;;;;;;;5055399;28;20377;-63
2022/05/20 05:46:31;;;;;;;16.38;2.30;;;;;;;;;;5052768;28;20131;-63
2022/05/20 05:48:57;;;;;;;19.20;2.65;;;;;;;;;;5053962;28;20039;-63
2022/05/20 05:51:25;;;;;;;14.13;2.15;;;;;;;;;;5054856;28;20029;-63
2022/05/20 05:53:51;;;;;;;10.00;2.28;;;;;;;;;;5068841;28;20111;-63
2022/05/20 05:56:17;;;;;;;8.52;2.42;;;;;;;;;;5071508;28;20048;-63
2022/05/20 05:58:43;;;;;;;17.63;2.70;;;;;;;;;;5062807;28;20039;-63
2022/05/20 06:01:10;;;;;;;14.15;2.63;;;;;;;;;;5053197;28;20086;-65
2022/05/20 06:03:36;;;;;;;16.23;3.78;;;;;;;;;;5053653;28;20017;-64
2022/05/20 06:06:02;;;;;;;15.70;2.83;;;;;;;;;;5052786;28;20036;-64
2022/05/20 06:08:28;;;;;;;10.25;2.22;;;;;;;;;;5053628;28;20024;-64
2022/05/20 06:10:54;;;;;;;14.90;3.05;;;;;;;;;;5053825;28;20043;-64
2022/05/20 06:13:22;;;;;;;10.63;3.47;;;;;;;;;;5054166;28;20036;-64
2022/05/20 06:15:49;;;;;;;10.38;2.53;;;;;;;;;;5053850;28;20119;-64
2022/05/20 06:18:15;;;;;;;13.43;2.03;;;;;;;;;;5064529;28;20025;-64
2022/05/20 06:20:41;;;;;;;12.07;2.15;;;;;;;;;;5060553;28;20044;-64
2022/05/20 06:23:07;;;;;;;14.93;2.30;;;;;;;;;;5054984;28;20025;-64
2022/05/20 06:25:33;;;;;;;10.35;1.92;;;;;;;;;;5054056;28;20044;-64
2022/05/20 06:28:10;;;;;;;11.73;1.98;;;;;;;;;;5054251;28;20087;-64
2022/05/20 06:30:38;;;;;;;11.90;2.10;;;;;;;;;;5054073;28;20033;-64
2022/05/20 06:33:04;;;;;;;20.80;2.60;;;;;;;;;;5053584;28;20021;-64
2022/05/20 06:41:00;;;;;;;13.15;2.80;;;;;;;;;;5053505;28;20040;-64
2022/05/20 06:43:27;;;;;;;13.43;2.40;;;;;;;;;;5053186;28;20017;-64
2022/05/20 06:45:58;;;;;;;12.50;2.60;;;;;;;;;;5065248;28;20043;-64
2022/05/20 06:48:25;;;;;;;12.80;1.95;;;;;;;;;;5055355;28;20064;-64
2022/05/20 06:50:51;;;;;;;12.90;2.40;;;;;;;;;;5053063;28;20025;-64
2022/05/20 06:53:17;;;;;;;20.98;2.38;;;;;;;;;;5052399;28;20463;-64
2022/05/20 06:55:44;;;;;;;21.60;3.00;;;;;;;;;;5047450;28;20029;-64
2022/05/20 06:58:10;;;;;;;7.65;1.85;;;;;;;;;;5050855;28;20047;-64
2022/05/20 07:00:36;;;;;;;29.33;3.50;;;;;;;;;;5054077;28;20029;-64
2022/05/20 07:03:02;;;;;;;10.70;2.22;;;;;;;;;;5049678;28;20400;-64
2022/05/20 07:05:28;;;;;;;19.98;2.55;;;;;;;;;;5052329;28;20021;-64
2022/05/20 07:07:56;;;;;;;17.02;2.47;;;;;;;;;;5052604;28;20021;-64
2022/05/20 07:10:22;;;;;;;15.30;3.65;;;;;;;;;;5051113;28;20028;-64
2022/05/20 07:12:48;;;;;;;20.48;2.97;;;;;;;;;;5051835;28;20029;-64
2022/05/20 07:15:14;;;;;;;18.42;2.28;;;;;;;;;;5050509;28;20469;-64
2022/05/20 07:17:41;;;;;;;14.85;3.05;;;;;;;;;;5052391;28;20048;-64
2022/05/20 07:20:10;;;;;;;16.83;2.45;;;;;;;;;;5052239;28;20036;-64
2022/05/20 07:22:36;;;;;;;12.32;2.50;;;;;;;;;;5052131;28;20115;-64
2022/05/20 07:25:02;;;;;;;13.45;2.70;;;;;;;;;;5051405;28;20031;-64
2022/05/20 07:27:30;;;;;;;11.60;2.45;;;;;;;;;;5059540;28;20500;-64
2022/05/20 07:29:56;;;;;;;12.77;2.40;;;;;;;;;;5054862;28;20107;-64
2022/05/20 07:32:22;;;;;;;13.27;2.33;;;;;;;;;;5052046;28;20524;-64
2022/05/20 07:34:48;;;;;;;9.43;1.90;;;;;;;;;;5058948;28;20029;-64
2022/05/20 07:37:15;;;;;;;8.60;1.80;;;;;;;;;;5060514;28;20033;-64
2022/05/20 07:39:41;;;;;;;10.13;1.70;;;;;;;;;;5059475;28;20090;-64
2022/05/20 07:42:07;;;;;;;9.90;1.50;;;;;;;;;;5054730;28;20033;-64
2022/05/20 07:44:35;;;;;;;15.65;2.58;;;;;;;;;;5051558;28;20037;-64
2022/05/20 07:47:02;;;;;;;10.05;1.85;;;;;;;;;;5052315;28;20067;-64
2022/05/20 07:49:28;;;;;;;8.43;1.55;;;;;;;;;;5053408;28;20017;-64
2022/05/20 07:51:57;;;;;;;14.05;2.17;;;;;;;;;;5049056;28;20114;-64
2022/05/20 07:54:24;;;;;;;16.42;2.47;;;;;;;;;;5046724;28;20112;-65
2022/05/20 07:56:55;;;;;;;11.00;1.85;;;;;;;;;;5045800;28;20052;-65
2022/05/20 07:59:24;;;;;;;13.95;2.17;;;;;;;;;;5050638;28;20100;-65
2022/05/20 08:01:51;;;;;;;12.63;2.08;;;;;;;;;;5045031;28;20457;-65
2022/05/20 08:04:52;;;;;;;12.35;3.33;;;;;;;;;;5048610;28;20029;-65
2022/05/20 08:07:20;;;;;;;13.30;2.00;;;;;;;;;;5049024;28;20584;-65
2022/05/20 08:09:46;;;;;;;14.13;2.25;;;;;;;;;;5048803;28;20017;-65
2022/05/20 08:12:12;;;;;;;11.60;1.73;;;;;;;;;;5055578;28;20024;-65
2022/05/20 08:14:38;;;;;;;10.88;1.80;;;;;;;;;;5053147;28;20025;-64
2022/05/20 08:17:05;;;;;;;11.05;1.63;;;;;;;;;;5052936;28;20044;-64
2022/05/20 08:19:32;;;;;;;8.80;1.92;;;;;;;;;;5050692;28;20025;-64
2022/05/20 08:21:58;;;;;;;10.90;2.22;;;;;;;;;;5054833;28;20115;-64
2022/05/20 08:24:25;;;;;;;10.05;1.92;;;;;;;;;;5054172;28;20048;-64
2022/05/20 08:26:51;;;;;;;9.68;1.95;;;;;;;;;;5053452;28;20037;-64
2022/05/20 08:29:18;;;;;;;15.90;2.33;;;;;;;;;;5055993;28;20021;-64
2022/05/20 08:31:45;;;;;;;12.90;2.08;;;;;;;;;;5057823;28;20021;-65
2022/05/20 08:34:11;;;;;;;7.70;1.80;;;;;;;;;;5052211;28;20427;-64
2022/05/20 08:36:38;;;;;;;12.80;3.17;;;;;;;;;;5050907;28;20033;-65
2022/05/20 08:39:05;;;;;;;10.25;1.73;;;;;;;;;;5050688;28;20017;-64
2022/05/20 08:41:37;;;;;;;10.63;2.88;;;;;;;;;;5050185;28;20041;-64
2022/05/20 08:44:04;;;;;;;13.57;2.70;;;;;;;;;;5048756;28;20029;-65
2022/05/20 08:46:30;;;;;;;9.85;2.53;;;;;;;;;;5050670;28;20051;-64
2022/05/20 08:48:57;;;;;;;9.80;1.85;;;;;;;;;;5051035;28;20024;-64
2022/05/20 08:51:24;;;;;;;8.40;1.65;;;;;;;;;;5044903;28;20024;-64
2022/05/20 08:53:51;;;;;;;12.20;2.45;;;;;;;;;;5049986;28;20032;-64
2022/05/20 08:56:24;;;;;;;13.30;2.03;;;;;;;;;;5047195;28;20060;-64
2022/05/20 08:58:55;;;;;;;13.45;2.22;;;;;;;;;;5051457;28;20461;-65
2022/05/20 09:01:33;;;;;;;8.60;2.55;;;;;;;;;;5048515;28;20029;-64
2022/05/20 09:04:00;;;;;;;10.63;1.63;;;;;;;;;;5051011;28;20033;-65
2022/05/20 09:06:27;;;;;;;11.63;2.08;;;;;;;;;;5050076;28;20054;-65
2022/05/20 09:09:13;;;;;;;11.23;1.88;;;;;;;;;;5051287;28;20469;-64
2022/05/20 09:11:40;;;;;;;10.68;2.58;;;;;;;;;;5050816;28;20116;-64
2022/05/20 09:17:15;;;;;;;11.93;2.20;;;;;;;;;;5049123;28;20029;-64
2022/05/20 09:19:56;;;;;;;4.53;1.83;;;;;;;;;;5050647;28;20087;-64
2022/05/20 09:22:27;;;;;;;8.05;1.67;;;;;;;;;;5050662;28;20036;-65
2022/05/20 09:24:53;;;;;;;9.70;1.65;;;;;;;;;;5050524;28;20068;-65
2022/05/20 09:27:26;;;;;;;9.15;1.63;;;;;;;;;;5050274;28;20092;-65
2022/05/20 09:29:57;;;;;;;12.80;1.77;;;;;;;;;;5051227;28;20021;-64
2022/05/20 09:32:25;;;;;;;17.13;2.45;;;;;;;;;;5051765;28;20484;-65
2022/05/20 09:35:02;;;;;;;9.88;2.08;;;;;;;;;;5053919;28;20105;-64
2022/05/20 09:37:29;;;;;;;14.52;2.15;;;;;;;;;;5051614;28;20025;-64
2022/05/20 09:39:55;;;;;;;9.07;2.15;;;;;;;;;;5054325;28;20025;-64
2022/05/20 09:42:29;;;;;;;12.57;1.90;;;;;;;;;;5054241;28;20591;-64
2022/05/20 09:45:00;;;;;;;11.85;1.73;;;;;;;;;;5054137;28;20116;-64
2022/05/20 09:47:26;;;;;;;12.63;2.13;;;;;;;;;;5053841;28;20025;-64
2022/05/20 09:50:05;;;;;;;8.65;1.50;;;;;;;;;;5053222;28;20029;-64
2022/05/20 09:52:50;;;;;;;9.52;1.90;;;;;;;;;;5053936;28;20032;-64
2022/05/20 09:55:36;;;;;;;6.45;1.77;;;;;;;;;;5053937;28;20477;-64
2022/05/20 09:58:12;;;;;;;8.77;1.90;;;;;;;;;;5057196;28;20084;-64
2022/05/20 10:00:39;;;;;;;7.20;1.52;;;;;;;;;;5041884;28;20040;-64
2022/05/20 10:03:23;;;;;;;7.13;1.55;;;;;;;;;;5054816;28;20075;-64
2022/05/20 10:06:08;;;;;;;11.80;2.00;;;;;;;;;;5042346;28;20036;-64
2022/05/20 10:08:41;;;;;;;6.60;1.42;;;;;;;;;;5050544;28;20028;-64
2022/05/20 10:11:11;;;;;;;5.82;2.30;;;;;;;;;;5054322;28;20055;-64
2022/05/20 10:13:41;;;;;;;12.50;2.00;;;;;;;;;;5053925;28;20080;-64
2022/05/20 10:16:26;;;;;;;7.10;1.75;;;;;;;;;;5054860;28;20040;-64
2022/05/20 10:18:57;;;;;;;4.35;1.23;;;;;;;;;;5056788;28;20025;-64
2022/05/20 10:21:35;;;;;;;2.97;1.27;;;;;;;;;;5054460;28;20037;-64
2022/05/20 10:24:02;;;;;;;4.63;1.35;;;;;;;;;;5045956;28;20539;-64
2022/05/20 10:26:48;;;;;;;5.40;1.30;;;;;;;;;;5052541;28;20052;-65
2022/05/20 10:32:36;;;;;;;5.00;1.33;;;;;;;;;;5052178;28;20028;-64
2022/05/20 10:35:04;;;;;;;4.65;1.30;;;;;;;;;;5060919;28;20531;-65
2022/05/20 10:37:30;;;;;;;7.13;1.50;;;;;;;;;;5062741;28;20035;-65
2022/05/20 10:39:59;;;;;;;4.03;1.25;;;;;;;;;;5052331;28;20554;-64
2022/05/20 10:42:28;;;;;;;5.55;1.35;;;;;;;;;;5046267;28;20100;-65
2022/05/20 10:48:36;;;;;;;8.27;1.55;;;;;;;;;;5044208;28;20029;-65
2022/05/20 10:51:03;;;;;;;;;;;;;;;;;;5051507;28;20394;-65
2022/05/20 10:53:29;;;;;;;6.28;1.23;;;;;;;;;;5051610;28;20369;-65
2022/05/20 10:56:14;;;;;;;4.07;1.20;;;;;;;;;;5049658;28;20452;-64
2022/05/20 10:59:07;;;;;;;5.28;1.30;;;;;;;;;;5051238;28;20064;-64
2022/05/20 11:01:35;;;;;;;5.00;1.48;;;;;;;;;;5047287;28;20033;-64
2022/05/20 11:04:15;;;;;;;5.88;1.10;;;;;;;;;;5051086;28;21190;-65
2022/05/20 11:06:44;;;;;;;4.25;1.17;;;;;;;;;;5051136;28;20025;-65
2022/05/20 11:09:19;;;;;;;5.75;1.23;;;;;;;;;;5051576;28;20110;-65
2022/05/20 11:11:51;;;;;;;3.75;1.00;;;;;;;;;;5051255;28;20112;-65
2022/05/20 11:14:29;;;;;;;4.73;0.97;;;;;;;;;;5051249;28;20033;-64
2022/05/20 11:16:56;;;;;;;4.90;1.30;;;;;;;;;;5043461;28;20394;-64
2022/05/20 11:19:31;;;;;;;5.38;1.42;;;;;;;;;;5050234;28;20477;-65
2022/05/20 11:22:06;;;;;;;7.28;1.60;;;;;;;;;;5050448;28;20029;-65
2022/05/20 11:24:41;;;;;;;2.65;1.13;;;;;;;;;;5051701;28;20428;-65
2022/05/20 11:27:26;;;;;;;6.03;1.38;;;;;;;;;;5050936;28;20033;-64
2022/05/20 11:30:11;;;;;;;4.53;1.02;;;;;;;;;;5048063;28;20021;-65
2022/05/20 11:32:44;;;;;;;2.90;1.10;;;;;;;;;;5050783;28;20393;-65
2022/05/20 11:35:35;;;;;;;7.72;1.90;;;;;;;;;;5042733;28;20449;-65
2022/05/20 11:38:01;;;;;;;5.25;1.35;;;;;;;;;;5038293;28;20044;-65
2022/05/20 11:40:39;;;;;;;6.82;1.55;;;;;;;;;;5050936;28;20043;-65
2022/05/20 11:43:05;;;;;;;6.65;2.05;;;;;;;;;;5050499;28;20032;-65
2022/05/20 11:45:31;;;;;;;4.20;1.10;;;;;;;;;;5050785;28;20549;-64
2022/05/20 11:48:04;;;;;;;5.47;1.40;;;;;;;;;;5050882;28;20021;-64
2022/05/20 11:50:47;;;;;;;7.18;1.25;;;;;;;;;;5043545;28;20033;-64
2022/05/20 11:53:14;;;;;;;9.25;1.70;;;;;;;;;;5050909;28;20329;-64
2022/05/20 11:55:40;;;;;;;7.60;1.40;;;;;;;;;;5050654;28;20562;-64
2022/05/20 11:58:14;;;;;;;6.82;1.80;;;;;;;;;;5050387;28;20408;-64
2022/05/20 12:00:42;;;;;;;4.00;1.50;;;;;;;;;;5050624;28;20036;-64
2022/05/20 12:03:15;;;;;;;4.72;1.40;;;;;;;;;;5038834;28;20126;-64
2022/05/20 12:05:43;;;;;;;7.05;2.53;;;;;;;;;;5049331;28;20036;-64
2022/05/20 12:08:29;;;;;;;6.20;1.35;;;;;;;;;;5044551;28;20318;-64
2022/05/20 12:10:55;;;;;;;7.60;1.45;;;;;;;;;;5049741;28;20107;-64
2022/05/20 12:13:26;;;;;;;4.65;1.40;;;;;;;;;;5049823;28;20071;-64
2022/05/20 12:16:10;;;;;;;3.90;1.60;;;;;;;;;;5052267;28;20028;-64
2022/05/20 12:24:15;;;;;;;4.63;1.30;;;;;;;;;;5049091;28;20033;-64
2022/05/20 12:26:52;;;;;;;7.68;1.98;;;;;;;;;;5049026;28;20043;-64
2022/05/20 12:29:37;;;;;;;8.75;1.70;;;;;;;;;;5048739;28;20225;-64
2022/05/20 12:32:27;;;;;;;5.47;1.70;;;;;;;;;;5047662;28;20112;-64
2022/05/20 12:35:05;;;;;;;10.00;1.80;;;;;;;;;;5044449;28;20659;-64
2022/05/20 12:37:43;;;;;;;6.55;1.55;;;;;;;;;;5049882;28;20037;-64
2022/05/20 12:40:28;;;;;;;5.28;1.40;;;;;;;;;;5049106;28;20025;-64
2022/05/20 12:42:56;;;;;;;10.60;1.23;;;;;;;;;;5048297;28;20029;-64
2022/05/20 12:45:23;;;;;;;4.97;1.42;;;;;;;;;;5049103;28;20033;-64
2022/05/20 12:47:49;;;;;;;5.65;1.55;;;;;;;;;;5049620;28;20151;-64
2022/05/20 12:50:16;;;;;;;6.78;1.90;;;;;;;;;;5048907;28;20049;-64
2022/05/20 12:52:52;;;;;;;5.38;1.35;;;;;;;;;;5049968;28;20336;-64
2022/05/20 12:55:24;;;;;;;8.80;1.30;;;;;;;;;;5047701;28;20115;-64
2022/05/20 12:57:55;;;;;;;8.75;1.55;;;;;;;;;;5048744;28;20049;-64
2022/05/20 13:00:31;;;;;;;7.40;2.00;;;;;;;;;;5047062;28;20053;-64
2022/05/20 13:03:16;;;;;;;8.93;1.50;;;;;;;;;;5049424;28;20048;-64
2022/05/20 13:05:53;;;;;;;6.25;1.33;;;;;;;;;;5049634;28;20116;-64
2022/05/20 13:08:21;;;;;;;4.60;1.20;;;;;;;;;;5051024;28;20075;-64
2022/05/20 13:10:48;;;;;;;10.52;2.00;;;;;;;;;;5053649;28;20021;-64
2022/05/20 13:13:16;;;;;;;10.35;1.80;;;;;;;;;;5053478;28;20060;-64
2022/05/20 13:15:48;;;;;;;10.80;2.13;;;;;;;;;;5052768;28;20115;-64
2022/05/20 13:18:31;;;;;;;5.63;1.88;;;;;;;;;;5053144;28;20089;-64
2022/05/20 13:20:58;;;;;;;10.18;2.15;;;;;;;;;;5050782;28;20036;-64
2022/05/20 13:23:38;;;;;;;5.30;1.42;;;;;;;;;;5052741;28;20021;-64
2022/05/20 13:26:05;;;;;;;6.80;2.22;;;;;;;;;;5053168;28;20063;-64
2022/05/20 13:28:33;;;;;;;7.53;1.88;;;;;;;;;;5048866;28;20026;-64
2022/05/20 13:31:07;;;;;;;6.28;2.20;;;;;;;;;;5049398;28;20022;-64
2022/05/20 13:33:34;;;;;;;6.25;1.40;;;;;;;;;;5048511;28;20049;-64
2022/05/20 13:36:01;;;;;;;11.65;2.42;;;;;;;;;;5049895;28;20033;-64
2022/05/20 13:38:29;;;;;;;7.10;1.40;;;;;;;;;;5053381;28;20025;-64
2022/05/20 13:40:55;;;;;;;6.50;1.60;;;;;;;;;;5054098;28;20083;-64
2022/05/20 13:43:26;;;;;;;6.85;1.67;;;;;;;;;;5053236;28;20068;-64
2022/05/20 13:51:28;;;;;;;4.75;1.73;;;;;;;;;;5050423;28;20033;-65
2022/05/20 13:53:56;;;;;;;7.13;1.77;;;;;;;;;;5048463;28;20072;-65
2022/05/20 13:56:24;;;;;;;6.65;1.30;;;;;;;;;;5054302;28;20489;-65
2022/05/20 13:58:52;;;;;;;6.70;1.33;;;;;;;;;;5053650;28;20072;-65
2022/05/20 14:01:20;;;;;;;4.82;1.42;;;;;;;;;;5053769;28;20474;-65
2022/05/20 14:03:48;;;;;;;8.18;1.80;;;;;;;;;;5053689;28;20036;-65
2022/05/20 14:06:16;;;;;;;10.98;2.17;;;;;;;;;;5051849;28;20485;-65
2022/05/20 14:08:45;;;;;;;6.95;1.45;;;;;;;;;;5052732;28;20047;-65
2022/05/20 14:11:13;;;;;;;8.82;1.83;;;;;;;;;;5053807;28;20083;-65
2022/05/20 14:13:40;;;;;;;5.70;1.48;;;;;;;;;;5051865;28;20033;-65
2022/05/20 14:16:14;;;;;;;7.30;1.63;;;;;;;;;;5048345;28;20035;-65
2022/05/20 14:18:44;;;;;;;6.85;1.63;;;;;;;;;;5051942;28;20194;-65
2022/05/20 14:21:11;;;;;;;7.85;2.25;;;;;;;;;;5053241;28;20017;-65
2022/05/20 14:23:44;;;;;;;5.65;1.90;;;;;;;;;;5049373;28;20025;-65
2022/05/20 14:26:12;;;;;;;7.03;1.55;;;;;;;;;;5051633;28;20029;-65
2022/05/20 14:28:45;;;;;;;7.80;2.22;;;;;;;;;;5052458;28;20029;-65
2022/05/20 14:31:17;;;;;;;5.15;1.20;;;;;;;;;;5053154;28;20408;-65
2022/05/20 14:33:46;;;;;;;7.43;1.58;;;;;;;;;;5052024;28;20040;-65
2022/05/20 14:36:14;;;;;;;9.35;1.40;;;;;;;;;;5049474;28;20543;-65
2022/05/20 14:38:45;;;;;;;9.38;1.60;;;;;;;;;;5051409;28;20386;-65
2022/05/20 14:41:30;;;;;;;10.32;1.48;;;;;;;;;;5049447;28;20017;-65
2022/05/20 14:44:00;;;;;;;8.02;1.40;;;;;;;;;;5050838;28;20032;-65
2022/05/20 14:49:24;;;;;;;4.30;1.17;;;;;;;;;;5045844;28;20021;-65
2022/05/20 14:51:55;;;;;;;10.82;1.23;;;;;;;;;;5050112;28;20115;-65
2022/05/20 14:54:23;;;;;;;7.28;1.58;;;;;;;;;;5054616;28;20033;-65
2022/05/20 14:56:50;;;;;;;4.93;1.38;;;;;;;;;;5050606;28;20052;-65
2022/05/20 14:59:30;;;;;;;7.50;1.65;;;;;;;;;;5050388;28;20037;-65
2022/05/20 15:01:56;;;;;;;5.57;1.10;;;;;;;;;;5052164;28;20358;-65
2022/05/20 15:04:23;;;;;;;9.68;1.60;;;;;;;;;;5052005;28;20024;-65
2022/05/20 15:06:49;;;;;;;8.50;1.45;;;;;;;;;;5051380;28;20078;-65
2022/05/20 15:09:21;;;;;;;4.78;1.20;;;;;;;;;;5052136;28;20025;-65
2022/05/20 15:11:47;;;;;;;5.10;1.10;;;;;;;;;;5045472;28;20021;-65
2022/05/20 15:14:13;;;;;;;7.07;1.60;;;;;;;;;;5050059;28;20029;-66
2022/05/20 15:16:39;;;;;;;8.70;1.52;;;;;;;;;;5044578;28;20474;-65
2022/05/20 15:19:05;;;;;;;7.88;1.42;;;;;;;;;;5051209;28;20017;-65
2022/05/20 15:21:33;;;;;;;8.02;1.40;;;;;;;;;;5051349;28;20055;-65
2022/05/20 15:24:13;;;;;;;9.15;1.42;;;;;;;;;;5051022;28;20126;-65
2022/05/20 15:26:40;;;;;;;10.60;1.65;;;;;;;;;;5044939;28;20102;-66
2022/05/20 15:29:07;;;;;;;10.05;1.50;;;;;;;;;;5051689;28;20028;-65
2022/05/20 15:37:18;;;;;;;14.63;2.28;;;;;;;;;;5047172;28;20033;-65